createdAt,value
2022-12-29T00:01:15.258Z,10.90
2022-12-29T00:03:43.819Z,10.90
2022-12-29T00:06:12.246Z,10.90
2022-12-29T00:08:43.397Z,11.00
2022-12-29T00:11:14.004Z,11.00
2022-12-29T00:14:02.005Z,11.00
2022-12-29T00:16:31.561Z,11.00
2022-12-29T00:19:00.367Z,11.00
2022-12-29T00:21:47.199Z,11.00
2022-12-29T00:24:36.008Z,11.10
2022-12-29T00:27:31.662Z,11.10
2022-12-29T00:30:18.977Z,11.20
2022-12-29T00:33:04.662Z,11.10
2022-12-29T00:35:38.347Z,11.10
2022-12-29T00:38:27.036Z,11.10
2022-12-29T00:41:12.542Z,11.00
2022-12-29T00:43:58.254Z,11.00
2022-12-29T00:46:27.879Z,11.00
2022-12-29T00:49:13.546Z,11.00
2022-12-29T00:51:42.215Z,11.00
2022-12-29T00:54:10.922Z,11.00
2022-12-29T00:56:39.315Z,11.00
2022-12-29T00:59:11.324Z,11.00
2022-12-29T01:01:41.818Z,11.00
2022-12-29T01:04:12.701Z,11.00
2022-12-29T01:06:42.866Z,11.00
2022-12-29T01:09:30.342Z,11.00
2022-12-29T01:11:58.669Z,11.10
2022-12-29T01:14:26.968Z,11.10
2022-12-29T01:16:57.788Z,11.10
2022-12-29T01:19:27.118Z,11.20
2022-12-29T01:21:55.645Z,11.20
2022-12-29T01:24:25.258Z,11.30
2022-12-29T01:26:55.384Z,11.30
2022-12-29T01:29:24.162Z,11.30
2022-12-29T01:31:52.473Z,11.30
2022-12-29T01:34:22.118Z,11.30
2022-12-29T01:36:50.334Z,11.40
2022-12-29T01:39:18.531Z,11.40
2022-12-29T01:41:46.778Z,11.40
2022-12-29T01:44:57.200Z,11.50
2022-12-29T01:47:34.794Z,11.50
2022-12-29T01:50:09.982Z,11.50
2022-12-29T01:52:43.649Z,11.50
2022-12-29T01:55:13.389Z,11.50
2022-12-29T01:57:47.337Z,11.60
2022-12-29T02:00:17.995Z,11.60
2022-12-29T02:02:50.382Z,11.60
2022-12-29T02:05:28.230Z,11.60
2022-12-29T02:07:57.124Z,11.60
2022-12-29T02:10:29.871Z,11.50
2022-12-29T02:12:58.846Z,11.60
2022-12-29T02:15:38.419Z,11.60
2022-12-29T02:18:27.828Z,11.60
2022-12-29T02:21:55.427Z,11.60
2022-12-29T02:25:17.238Z,11.60
2022-12-29T02:28:21.563Z,11.60
2022-12-29T02:31:06.906Z,11.60
2022-12-29T02:33:50.730Z,11.60
2022-12-29T02:36:29.740Z,11.60
2022-12-29T02:39:07.141Z,11.50
2022-12-29T02:41:42.993Z,11.50
2022-12-29T02:44:17.757Z,11.50
2022-12-29T02:46:54.747Z,11.40
2022-12-29T02:49:35.563Z,11.30
2022-12-29T02:52:08.847Z,11.30
2022-12-29T02:54:43.668Z,11.30
2022-12-29T02:57:16.542Z,11.20
2022-12-29T02:59:47.348Z,11.20
2022-12-29T03:02:39.985Z,11.30
2022-12-29T03:05:50.416Z,11.20
2022-12-29T03:08:31.558Z,11.20
2022-12-29T03:11:02.904Z,11.10
2022-12-29T03:13:55.031Z,11.00
2022-12-29T03:16:27.193Z,11.00
2022-12-29T03:19:03.816Z,11.00
2022-12-29T03:21:56.061Z,11.00
2022-12-29T03:24:29.955Z,11.00
2022-12-29T03:27:01.787Z,11.10
2022-12-29T03:29:32.162Z,11.20
2022-12-29T03:32:02.290Z,11.20
2022-12-29T03:34:33.024Z,11.10
2022-12-29T03:37:07.712Z,11.20
2022-12-29T03:39:36.107Z,11.20
2022-12-29T03:42:08.293Z,11.10
2022-12-29T03:44:40.209Z,11.10
2022-12-29T03:47:09.537Z,11.20
2022-12-29T03:49:39.365Z,11.20
2022-12-29T03:52:07.795Z,11.20
2022-12-29T03:54:36.137Z,11.20
2022-12-29T03:57:04.328Z,11.10
2022-12-29T03:59:32.610Z,11.00
2022-12-29T04:02:00.969Z,11.00
2022-12-29T04:04:29.612Z,10.90
2022-12-29T04:06:59.204Z,10.90
2022-12-29T04:09:27.465Z,10.80
2022-12-29T04:11:56.167Z,10.80
2022-12-29T04:14:24.492Z,10.80
2022-12-29T04:16:52.865Z,10.80
2022-12-29T04:19:21.114Z,10.70
2022-12-29T04:21:49.339Z,10.50
2022-12-29T04:24:18.977Z,10.20
2022-12-29T04:26:47.459Z,10.00
2022-12-29T04:29:15.897Z,9.80
2022-12-29T04:31:44.495Z,9.50
2022-12-29T04:34:13.397Z,9.30
2022-12-29T04:36:41.813Z,9.40
2022-12-29T04:39:10.455Z,9.30
2022-12-29T04:41:40.180Z,9.30
2022-12-29T04:44:08.672Z,9.30
2022-12-29T04:46:37.049Z,9.30
2022-12-29T04:49:09.517Z,9.30
2022-12-29T04:51:38.345Z,9.20
2022-12-29T04:54:06.833Z,9.30
2022-12-29T04:56:35.530Z,9.30
2022-12-29T04:59:05.244Z,9.20
2022-12-29T05:01:33.769Z,9.30
2022-12-29T05:04:02.389Z,9.30
2022-12-29T05:06:30.685Z,9.20
2022-12-29T05:08:59.085Z,9.30
2022-12-29T05:11:27.513Z,9.20
2022-12-29T05:13:56.127Z,9.20
2022-12-29T05:16:25.962Z,9.20
2022-12-29T05:18:54.382Z,9.20
2022-12-29T05:21:23.105Z,9.20
2022-12-29T05:23:51.860Z,9.20
2022-12-29T05:26:20.486Z,9.20
2022-12-29T05:28:49.090Z,9.20
2022-12-29T05:31:17.569Z,9.10
2022-12-29T05:33:48.362Z,9.10
2022-12-29T05:36:16.704Z,9.10
2022-12-29T05:38:47.163Z,9.20
2022-12-29T05:41:15.370Z,9.20
2022-12-29T05:43:43.638Z,9.20
2022-12-29T05:46:12.089Z,9.10
2022-12-29T05:48:40.362Z,9.10
2022-12-29T05:51:10.316Z,9.10
2022-12-29T05:53:38.667Z,9.00
2022-12-29T05:56:07.929Z,9.10
2022-12-29T05:58:36.188Z,9.00
2022-12-29T06:01:04.433Z,9.00
2022-12-29T06:03:32.910Z,9.10
2022-12-29T06:06:01.738Z,9.10
2022-12-29T06:08:31.480Z,9.10
2022-12-29T06:10:59.688Z,9.10
2022-12-29T06:13:29.188Z,9.10
2022-12-29T06:15:57.392Z,9.20
2022-12-29T06:18:25.633Z,9.10
2022-12-29T06:20:53.896Z,9.10
2022-12-29T06:23:22.352Z,9.10
2022-12-29T06:25:52.133Z,9.10
2022-12-29T06:28:20.835Z,9.10
2022-12-29T06:30:50.171Z,9.10
2022-12-29T06:33:18.503Z,9.20
2022-12-29T06:35:47.421Z,9.20
2022-12-29T06:38:15.831Z,9.10
2022-12-29T06:40:46.387Z,9.10
2022-12-29T06:43:16.453Z,9.10
2022-12-29T06:45:45.484Z,9.10
2022-12-29T06:48:13.886Z,9.10
2022-12-29T06:50:42.654Z,9.10
2022-12-29T06:53:11.471Z,9.10
2022-12-29T06:55:39.827Z,9.10
2022-12-29T06:58:08.362Z,9.10
2022-12-29T07:00:38.143Z,9.10
2022-12-29T07:03:06.489Z,9.10
2022-12-29T07:05:35.208Z,9.20
2022-12-29T07:08:03.950Z,9.20
2022-12-29T07:10:32.175Z,9.20
2022-12-29T07:13:00.723Z,9.20
2022-12-29T07:15:29.424Z,9.20
2022-12-29T07:17:59.459Z,9.20
2022-12-29T07:20:27.936Z,9.40
2022-12-29T07:22:56.548Z,9.40
2022-12-29T07:25:25.347Z,9.40
2022-12-29T07:27:53.699Z,9.30
2022-12-29T07:30:21.916Z,9.40
2022-12-29T07:32:50.243Z,9.40
2022-12-29T07:35:19.949Z,9.40
2022-12-29T07:37:48.245Z,9.50
2022-12-29T07:40:16.653Z,9.40
2022-12-29T07:42:44.982Z,9.40
2022-12-29T07:45:13.364Z,9.50
2022-12-29T07:47:41.625Z,9.40
2022-12-29T07:50:10.323Z,9.40
2022-12-29T07:52:40.368Z,9.40
2022-12-29T07:55:10.251Z,9.30
2022-12-29T07:57:38.658Z,9.30
2022-12-29T08:00:08.495Z,9.20
2022-12-29T08:02:36.843Z,9.40
2022-12-29T08:05:06.226Z,9.50
2022-12-29T08:07:34.496Z,9.40
2022-12-29T08:10:04.812Z,9.40
2022-12-29T08:12:33.164Z,9.30
2022-12-29T08:15:01.407Z,9.40
2022-12-29T08:17:29.971Z,9.40
2022-12-29T08:19:59.104Z,9.40
2022-12-29T08:22:27.514Z,9.40
2022-12-29T08:24:56.136Z,9.40
2022-12-29T08:27:25.784Z,9.40
2022-12-29T08:29:54.107Z,9.40
2022-12-29T08:32:22.299Z,9.50
2022-12-29T08:34:50.608Z,9.60
2022-12-29T08:37:18.800Z,9.70
2022-12-29T08:39:47.187Z,9.60
2022-12-29T08:42:15.491Z,9.70
2022-12-29T08:44:45.069Z,9.90
2022-12-29T08:47:13.818Z,9.90
2022-12-29T08:49:42.046Z,9.90
2022-12-29T08:52:10.548Z,9.90
2022-12-29T08:54:39.229Z,10.00
2022-12-29T08:57:07.621Z,9.90
2022-12-29T08:59:35.804Z,9.90
2022-12-29T09:02:05.827Z,9.90
2022-12-29T09:04:34.441Z,9.90
2022-12-29T09:07:02.799Z,9.90
2022-12-29T09:09:31.085Z,9.80
2022-12-29T09:11:59.486Z,9.90
2022-12-29T09:14:27.725Z,9.90
2022-12-29T09:17:14.759Z,9.90
2022-12-29T09:19:44.384Z,9.90
2022-12-29T09:22:12.639Z,9.80
2022-12-29T09:24:40.918Z,9.80
2022-12-29T09:27:09.164Z,9.90
2022-12-29T09:29:37.346Z,10.00
2022-12-29T09:32:07.974Z,10.10
2022-12-29T09:34:36.890Z,10.10
2022-12-29T09:37:06.531Z,10.20
2022-12-29T09:39:34.755Z,10.20
2022-12-29T09:42:09.744Z,10.20
2022-12-29T09:44:56.832Z,10.10
2022-12-29T09:47:27.484Z,10.10
2022-12-29T09:50:00.941Z,10.10
2022-12-29T09:52:34.581Z,10.20
2022-12-29T09:55:11.975Z,10.20
2022-12-29T09:57:48.163Z,10.20
2022-12-29T10:00:20.327Z,10.30
2022-12-29T10:02:54.337Z,10.30
2022-12-29T10:05:39.849Z,10.20
2022-12-29T10:08:32.117Z,10.20
2022-12-29T10:11:17.008Z,10.30
2022-12-29T10:14:16.080Z,10.30
2022-12-29T10:16:55.757Z,10.30
2022-12-29T10:19:55.772Z,10.60
2022-12-29T10:22:44.210Z,10.60
2022-12-29T10:25:21.570Z,10.60
2022-12-29T10:27:52.122Z,10.80
2022-12-29T10:30:20.846Z,10.80
2022-12-29T10:32:55.258Z,11.00
2022-12-29T10:35:26.106Z,11.00
2022-12-29T10:38:01.626Z,10.90
2022-12-29T10:40:38.696Z,10.90
2022-12-29T10:43:25.106Z,10.80
2022-12-29T10:45:55.675Z,10.60
2022-12-29T10:48:31.836Z,10.60
2022-12-29T10:51:04.276Z,10.50
2022-12-29T10:53:41.013Z,10.60
2022-12-29T10:56:24.214Z,10.60
2022-12-29T10:58:54.085Z,10.70
2022-12-29T11:01:22.636Z,10.70
2022-12-29T11:04:02.871Z,10.60
2022-12-29T11:06:31.530Z,10.70
2022-12-29T11:09:04.254Z,10.70
2022-12-29T11:11:38.592Z,10.60
2022-12-29T11:14:16.204Z,10.70
2022-12-29T11:16:46.138Z,10.70
2022-12-29T11:19:25.629Z,10.60
2022-12-29T11:21:54.822Z,10.60
2022-12-29T11:24:26.571Z,10.60
2022-12-29T11:26:58.707Z,10.50
2022-12-29T11:29:29.524Z,10.60
2022-12-29T11:32:00.588Z,10.50
2022-12-29T11:34:33.741Z,10.50
2022-12-29T11:37:07.412Z,10.60
2022-12-29T11:39:43.836Z,10.60
2022-12-29T11:42:19.707Z,10.50
2022-12-29T11:44:50.584Z,10.60
2022-12-29T11:47:31.644Z,10.60
2022-12-29T11:50:03.232Z,10.70
2022-12-29T11:52:37.225Z,10.70
2022-12-29T11:55:09.531Z,10.70
2022-12-29T11:57:39.282Z,10.70
2022-12-29T12:00:19.276Z,10.70
2022-12-29T12:02:57.847Z,10.70
2022-12-29T12:05:38.649Z,10.70
2022-12-29T12:08:20.445Z,10.80
2022-12-29T12:10:55.506Z,10.80
2022-12-29T12:13:32.693Z,10.70
2022-12-29T12:16:07.411Z,10.70
2022-12-29T12:18:43.967Z,10.60
2022-12-29T12:21:21.751Z,10.70
2022-12-29T12:24:31.247Z,10.70
2022-12-29T12:27:05.515Z,10.60
2022-12-29T12:29:48.886Z,10.60
2022-12-29T12:32:23.022Z,10.70
2022-12-29T12:34:52.648Z,10.80
2022-12-29T12:37:47.364Z,10.70
2022-12-29T12:40:47.928Z,10.70
2022-12-29T12:43:39.592Z,10.70
2022-12-29T12:46:42.705Z,10.70
2022-12-29T12:49:42.577Z,10.60
2022-12-29T12:52:22.959Z,10.60
2022-12-29T12:55:13.178Z,10.60
2022-12-29T12:57:54.206Z,10.50
2022-12-29T13:00:24.431Z,10.50
2022-12-29T13:03:08.084Z,10.40
2022-12-29T13:06:14.375Z,10.50
2022-12-29T13:09:05.662Z,10.50
2022-12-29T13:11:50.685Z,10.50
2022-12-29T13:14:35.563Z,10.50
2022-12-29T13:17:15.923Z,10.40
2022-12-29T13:19:55.753Z,10.30
2022-12-29T13:22:32.901Z,10.30
2022-12-29T13:25:25.810Z,10.30
2022-12-29T13:28:02.545Z,10.30
2022-12-29T13:30:36.738Z,10.30
2022-12-29T13:33:20.969Z,10.20
2022-12-29T13:36:02.514Z,10.20
2022-12-29T13:38:38.446Z,10.10
2022-12-29T13:41:11.267Z,10.10
2022-12-29T13:43:42.898Z,10.10
2022-12-29T13:46:18.684Z,10.10
2022-12-29T13:48:52.988Z,10.10
2022-12-29T13:51:28.208Z,10.20
2022-12-29T13:54:12.183Z,10.20
2022-12-29T13:56:43.736Z,10.20
2022-12-29T13:59:26.062Z,10.20
2022-12-29T14:02:02.585Z,10.20
2022-12-29T14:04:34.175Z,10.30
2022-12-29T14:07:07.585Z,10.30
2022-12-29T14:09:50.029Z,10.30
2022-12-29T14:12:34.541Z,10.30
2022-12-29T14:15:16.393Z,10.30
2022-12-29T14:17:45.821Z,10.30
2022-12-29T14:20:23.736Z,10.30
2022-12-29T14:23:02.201Z,10.40
2022-12-29T14:26:12.587Z,10.30
2022-12-29T14:28:43.828Z,10.40
2022-12-29T14:31:42.179Z,10.40
2022-12-29T14:34:32.825Z,10.40
2022-12-29T14:37:02.617Z,10.30
2022-12-29T14:39:39.951Z,10.30
2022-12-29T14:42:15.068Z,10.30
2022-12-29T14:44:52.403Z,10.30
2022-12-29T14:47:25.025Z,10.30
2022-12-29T14:49:54.561Z,10.30
2022-12-29T14:52:26.910Z,10.30
2022-12-29T14:55:01.312Z,10.30
2022-12-29T14:57:39.625Z,10.20
2022-12-29T15:00:18.480Z,10.20
2022-12-29T15:02:52.852Z,10.10
2022-12-29T15:05:37.504Z,10.10
2022-12-29T15:08:08.188Z,10.20
2022-12-29T15:10:49.082Z,10.20
2022-12-29T15:13:23.684Z,10.10
2022-12-29T15:15:51.983Z,10.10
2022-12-29T15:18:27.935Z,10.10
2022-12-29T15:20:59.327Z,10.10
2022-12-29T15:23:28.301Z,10.00
2022-12-29T15:26:00.175Z,10.00
2022-12-29T15:28:29.520Z,10.00
2022-12-29T15:31:04.899Z,9.90
2022-12-29T15:33:33.268Z,9.90
2022-12-29T15:36:08.105Z,9.90
2022-12-29T15:38:40.409Z,9.80
2022-12-29T15:41:27.751Z,9.80
2022-12-29T15:44:09.451Z,9.80
2022-12-29T15:46:38.549Z,9.80
2022-12-29T15:49:09.196Z,9.70
2022-12-29T15:51:40.784Z,9.70
2022-12-29T15:54:18.046Z,9.70
2022-12-29T15:56:48.423Z,9.60
2022-12-29T15:59:28.854Z,9.60
2022-12-29T16:01:57.902Z,9.50
2022-12-29T16:04:29.000Z,9.50
2022-12-29T16:07:00.404Z,9.40
2022-12-29T16:09:35.966Z,9.40
2022-12-29T16:12:09.241Z,9.30
2022-12-29T16:14:49.847Z,9.30
2022-12-29T16:17:24.038Z,9.10
2022-12-29T16:19:55.445Z,8.80
2022-12-29T16:22:30.624Z,8.50
2022-12-29T16:25:05.189Z,8.20
2022-12-29T16:27:45.495Z,8.00
2022-12-29T16:30:26.542Z,7.90
2022-12-29T16:33:01.887Z,7.90
2022-12-29T16:35:32.131Z,7.70
2022-12-29T16:38:18.494Z,7.70
2022-12-29T16:40:54.604Z,7.60
2022-12-29T16:43:27.060Z,7.60
2022-12-29T16:46:28.608Z,7.50
2022-12-29T16:48:58.633Z,7.50
2022-12-29T16:51:33.173Z,7.50
2022-12-29T16:54:02.568Z,7.50
2022-12-29T16:56:34.301Z,7.50
2022-12-29T16:59:08.725Z,7.40
2022-12-29T17:01:39.385Z,7.50
2022-12-29T17:04:11.264Z,7.50
2022-12-29T17:06:40.030Z,7.40
2022-12-29T17:09:20.593Z,7.40
2022-12-29T17:12:02.489Z,7.40
2022-12-29T17:14:44.777Z,7.40
2022-12-29T17:17:18.906Z,7.40
2022-12-29T17:19:51.363Z,7.40
2022-12-29T17:22:25.205Z,7.40
2022-12-29T17:24:54.258Z,7.30
2022-12-29T17:27:33.728Z,7.30
2022-12-29T17:30:07.919Z,7.30
2022-12-29T17:32:36.168Z,7.30
2022-12-29T17:35:05.721Z,7.30
2022-12-29T17:37:38.947Z,7.30
2022-12-29T17:40:12.084Z,7.30
2022-12-29T17:42:44.349Z,7.30
2022-12-29T17:45:19.024Z,7.30
2022-12-29T17:47:47.745Z,7.20
2022-12-29T17:50:18.283Z,7.20
2022-12-29T17:52:51.519Z,7.20
2022-12-29T17:55:23.472Z,7.20
2022-12-29T17:57:52.894Z,7.10
2022-12-29T18:00:27.727Z,7.10
2022-12-29T18:02:57.111Z,7.10
2022-12-29T18:05:27.629Z,7.10
2022-12-29T18:07:58.337Z,7.00
2022-12-29T18:10:29.359Z,7.00
2022-12-29T18:13:00.792Z,7.00
2022-12-29T18:15:31.700Z,7.00
2022-12-29T18:18:03.145Z,6.90
2022-12-29T18:20:34.507Z,6.90
2022-12-29T18:23:02.999Z,6.90
2022-12-29T18:25:41.488Z,6.90
2022-12-29T18:28:09.891Z,6.90
2022-12-29T18:30:39.886Z,6.90
2022-12-29T18:33:08.164Z,6.90
2022-12-29T18:35:41.949Z,6.90
2022-12-29T18:38:11.717Z,6.90
2022-12-29T18:40:42.221Z,6.90
2022-12-29T18:43:13.815Z,6.90
2022-12-29T18:45:46.265Z,6.90
2022-12-29T18:48:14.896Z,6.90
2022-12-29T18:50:44.102Z,6.90
2022-12-29T18:53:18.552Z,6.90
2022-12-29T18:55:47.591Z,7.00
2022-12-29T18:58:16.291Z,6.90
2022-12-29T19:00:47.241Z,7.00
2022-12-29T19:03:16.680Z,7.00
2022-12-29T19:05:47.395Z,6.90
2022-12-29T19:08:15.972Z,7.00
2022-12-29T19:10:45.910Z,7.00
2022-12-29T19:13:19.035Z,7.00
2022-12-29T19:15:49.035Z,7.00
2022-12-29T19:21:09.727Z,7.00
2022-12-29T19:23:37.997Z,7.00
2022-12-29T19:26:06.792Z,6.90
2022-12-29T19:28:35.273Z,6.90
2022-12-29T19:31:05.028Z,6.90
2022-12-29T19:33:33.310Z,6.90
2022-12-29T19:36:03.430Z,7.00
2022-12-29T19:38:31.972Z,7.00
2022-12-29T19:41:00.375Z,7.00
2022-12-29T19:43:28.649Z,7.00
2022-12-29T19:45:56.962Z,7.00
2022-12-29T19:48:26.929Z,7.00
2022-12-29T19:50:55.264Z,6.90
2022-12-29T19:53:23.544Z,6.90
2022-12-29T19:55:51.915Z,6.90
2022-12-29T19:58:20.804Z,7.00
2022-12-29T20:00:49.987Z,6.90
2022-12-29T20:03:19.408Z,6.90
2022-12-29T20:05:51.943Z,7.00
2022-12-29T20:08:20.368Z,6.90
2022-12-29T20:10:59.774Z,7.00
2022-12-29T20:13:28.388Z,6.90
2022-12-29T20:16:01.664Z,6.90
2022-12-29T20:18:30.637Z,6.90
2022-12-29T20:21:05.893Z,6.90
2022-12-29T20:23:35.703Z,7.00
2022-12-29T20:26:05.595Z,7.00
2022-12-29T20:28:34.073Z,7.00
2022-12-29T20:31:06.443Z,7.00
2022-12-29T20:33:37.335Z,7.00
2022-12-29T20:36:09.707Z,7.00
2022-12-29T20:38:38.493Z,6.90
2022-12-29T20:41:07.092Z,6.90
2022-12-29T20:43:35.587Z,7.00
2022-12-29T20:46:04.408Z,6.90
2022-12-29T20:48:33.272Z,6.90
2022-12-29T20:51:01.766Z,7.00
2022-12-29T20:53:34.524Z,7.00
2022-12-29T20:56:05.931Z,7.00
2022-12-29T20:58:47.184Z,6.90
2022-12-29T21:01:26.877Z,6.90
2022-12-29T21:03:55.292Z,6.90
2022-12-29T21:06:23.630Z,6.90
2022-12-29T21:08:55.066Z,6.90
2022-12-29T21:11:24.551Z,6.90
2022-12-29T21:13:53.161Z,6.80
2022-12-29T21:16:22.322Z,6.80
2022-12-29T21:18:51.668Z,6.80
2022-12-29T21:21:22.546Z,6.80
2022-12-29T21:23:52.869Z,6.80
2022-12-29T21:26:24.264Z,6.80
2022-12-29T21:28:53.147Z,6.80
2022-12-29T21:31:29.810Z,6.80
2022-12-29T21:33:59.325Z,6.80
2022-12-29T21:36:28.543Z,6.80
2022-12-29T21:39:00.149Z,6.80
2022-12-29T21:41:28.691Z,6.70
2022-12-29T21:44:14.724Z,6.70
2022-12-29T21:46:44.170Z,6.70
2022-12-29T21:49:12.793Z,6.70
2022-12-29T21:51:54.145Z,6.70
2022-12-29T21:54:43.752Z,6.70
2022-12-29T21:57:34.544Z,6.70
2022-12-29T22:00:21.405Z,6.60
2022-12-29T22:03:07.746Z,6.70
2022-12-29T22:05:53.741Z,6.70
2022-12-29T22:08:39.561Z,6.70
2022-12-29T22:11:27.929Z,6.70
2022-12-29T22:13:58.118Z,6.70
2022-12-29T22:16:27.954Z,6.60
2022-12-29T22:18:56.323Z,6.50
2022-12-29T22:21:24.657Z,6.60
2022-12-29T22:23:52.902Z,6.50
2022-12-29T22:26:22.649Z,6.50
2022-12-29T22:28:52.433Z,6.60
2022-12-29T22:31:29.017Z,6.60
2022-12-29T22:34:03.427Z,6.60
2022-12-29T22:36:33.462Z,6.60
2022-12-29T22:39:01.926Z,6.60
2022-12-29T22:41:31.546Z,6.50
2022-12-29T22:43:59.787Z,6.50
2022-12-29T22:46:28.177Z,6.40
2022-12-29T22:48:58.374Z,6.40
2022-12-29T22:51:26.753Z,6.50
2022-12-29T22:53:55.164Z,6.50
2022-12-29T22:56:23.419Z,6.50
2022-12-29T22:58:54.426Z,6.50
2022-12-29T23:01:23.246Z,6.40
2022-12-29T23:03:52.000Z,6.40
2022-12-29T23:06:20.433Z,6.40
2022-12-29T23:08:48.645Z,6.40
2022-12-29T23:11:17.395Z,6.40
2022-12-29T23:13:46.155Z,6.50
2022-12-29T23:16:17.197Z,6.40
2022-12-29T23:18:46.865Z,6.40
2022-12-29T23:21:15.498Z,6.40
2022-12-29T23:23:57.244Z,6.30
2022-12-29T23:26:28.410Z,6.30
2022-12-29T23:29:00.515Z,6.30
2022-12-29T23:31:32.523Z,6.30
2022-12-29T23:34:01.867Z,6.30
2022-12-29T23:36:31.200Z,6.30
2022-12-29T23:39:00.092Z,6.30
2022-12-29T23:41:29.065Z,6.20
2022-12-29T23:43:57.476Z,6.20
2022-12-29T23:46:29.964Z,6.20
2022-12-29T23:48:58.659Z,6.20
2022-12-29T23:51:28.037Z,6.20
2022-12-29T23:53:57.516Z,6.20
2022-12-29T23:56:25.785Z,6.30
2022-12-29T23:58:54.412Z,6.30
